M I D A S
Marine Information and Data Acquisition System
Tripno 388 of the Zeeleeuw from 2002-09-30 08:13:18 to 2002-09-30 14:28:29
Back to CruiseResearch ActivitiesStationsMapUnderway DataData graphs

EquipmentUnitsComments
TimeDGPSUTC
LatitudeDGPSDM.mWGS84
LongitudeDGPSDM.mWGS84
SpeedMeteo Stationm/sRelative wind speed
DirectionMeteo StationdegRelative wind direction
TemperatureMeteo Stationdeg CelciusAir temperature
PressureMeteo StationPaAtmospheric pressure
HumidityMeteo Station%Relative humidity
Missing or incorrect values are displayed as -999
Metereological data collected by the RV Zeeleeuw from 2002-09-30 08:13:18 to 2002-09-30 14:28:29
                                                                                    Next 1000 lines
Time Latitude Longitude Speed Direction Temperature Pressure Humidity
2002-09-30 08:13:29 51°13.664 2°55.947 5.7 213 11.6 102510 72
2002-09-30 08:13:33 51°13.663 2°55.949 5.6 230 11.6 102510 72
2002-09-30 08:13:39 51°13.659 2°55.953 6 216 11.6 102510 72
2002-09-30 08:13:43 51°13.657 2°55.957 5.9 316 11.6 102510 72
2002-09-30 08:13:50 51°13.652 2°55.963 6.3 223 11.6 102510 72
2002-09-30 08:13:53 51°13.649 2°55.967 6.1 228 11.6 102510 72
2002-09-30 08:14:02 51°13.642 2°55.977 6.7 135 11.6 102510 72
2002-09-30 08:14:06 51°13.638 2°55.982 6.1 203 11.6 102510 72
2002-09-30 08:14:10 51°13.635 2°55.987 6.7 228 11.6 102510 72
2002-09-30 08:14:17 51°13.63 2°55.995 5.5 218 11.6 102510 72
2002-09-30 08:14:22 51°13.626 2°56.002 5.8 316 11.6 102510 72
2002-09-30 08:14:27 51°13.622 2°56.008 6.1 218 11.6 102510 72
2002-09-30 08:14:32 51°13.618 2°56.014 5.8 226 11.6 102510 72
2002-09-30 08:14:37 51°13.614 2°56.02 6.1 220 11.6 102510 73
2002-09-30 08:14:46 51°13.608 2°56.031 5.2 213 11.6 102510 73
2002-09-30 08:14:51 51°13.604 2°56.037 5.3 223 11.6 102510 72
2002-09-30 08:14:55 51°13.601 2°56.042 5.2 213 11.6 102510 72
2002-09-30 08:14:58 51°13.599 2°56.046 5.7 221 11.6 102510 73
2002-09-30 08:15:06 51°13.593 2°56.057 4.9 216 11.6 102510 73
2002-09-30 08:15:11 51°13.59 2°56.063 5.5 210 11.6 102510 72
2002-09-30 08:15:16 51°13.586 2°56.07 5.6 199 11.6 102510 72
2002-09-30 08:15:21 51°13.583 2°56.077 6.3 217 11.6 102510 72
2002-09-30 08:15:26 51°13.579 2°56.084 8.2 216 11.6 102510 72
2002-09-30 08:15:30 51°13.576 2°56.09 7.7 217 11.6 102510 72
2002-09-30 08:15:36 51°13.572 2°56.099 6.6 224 11.6 102510 72
2002-09-30 08:15:41 51°13.569 2°56.107 5.5 203 11.6 102510 72
2002-09-30 08:15:46 51°13.566 2°56.114 6 205 11.6 102510 72
2002-09-30 08:15:51 51°13.563 2°56.122 5.6 205 11.6 102510 72
2002-09-30 08:15:55 51°13.56 2°56.129 5.5 226 11.6 102510 72
2002-09-30 08:16:01 51°13.557 2°56.138 5.4 205 11.6 102510 72
2002-09-30 08:16:06 51°13.553 2°56.146 6.1 229 11.6 102510 72
2002-09-30 08:16:09 51°13.552 2°56.151 5.7 213 11.6 102510 72
2002-09-30 08:16:14 51°13.549 2°56.16 6.6 200 11.6 102510 72
2002-09-30 08:16:21 51°13.545 2°56.172 6.1 209 11.7 102510 72
2002-09-30 08:16:26 51°13.543 2°56.181 4.8 187 11.7 102510 72
2002-09-30 08:16:31 51°13.541 2°56.19 4.8 186 11.7 102510 72
2002-09-30 08:16:35 51°13.541 2°56.197 5.6 177 11.7 102510 72
2002-09-30 08:16:40 51°13.54 2°56.206 3.7 166 11.6 102510 72
2002-09-30 08:16:46 51°13.541 2°56.216 3.7 169 11.6 102510 72
2002-09-30 08:16:51 51°13.542 2°56.224 3.3 185 11.7 102510 72
2002-09-30 08:16:56 51°13.542 2°56.231 3 177 11.7 102510 72
2002-09-30 08:16:58 51°13.543 2°56.234 2.6 193 11.7 102510 71
2002-09-30 08:17:06 51°13.545 2°56.244 2.6 174 11.7 102510 71
2002-09-30 08:17:09 51°13.546 2°56.248 3 179 11.6 102520 72
2002-09-30 08:17:16 51°13.548 2°56.256 4.3 188 11.6 102520 72
2002-09-30 08:17:21 51°13.549 2°56.26 3.1 182 11.7 102520 72
2002-09-30 08:17:26 51°13.551 2°56.264 3.3 146 11.7 102520 72
2002-09-30 08:17:29 51°13.552 2°56.266 3.8 129 11.7 102520 72
2002-09-30 08:17:34 51°13.553 2°56.269 3.8 141 11.7 102520 72
2002-09-30 08:17:41 51°13.555 2°56.272 3.8 146 11.7 102520 72
2002-09-30 08:17:46 51°13.556 2°56.274 4.2 132 11.7 102520 72
2002-09-30 08:17:49 51°13.556 2°56.275 4.1 117 11.7 102520 72
2002-09-30 08:17:55 51°13.557 2°56.276 4 121 11.7 102520 72
2002-09-30 08:18:01 51°13.558 2°56.277 4.2 118 11.7 102520 72
2002-09-30 08:18:06 51°13.559 2°56.277 4.9 110 11.7 102520 72
2002-09-30 08:18:11 51°13.559 2°56.277 4.2 111 11.7 102520 72
2002-09-30 08:18:15 51°13.559 2°56.277 4.8 109 11.7 102520 72
2002-09-30 08:18:21 51°13.558 2°56.276 4.6 99 11.8 102520 72
2002-09-30 08:18:26 51°13.557 2°56.275 4.4 107 11.8 102520 72
2002-09-30 08:18:31 51°13.556 2°56.274 4.5 112 11.8 102520 72
2002-09-30 08:18:36 51°13.555 2°56.273 4.1 96 11.8 102520 72
2002-09-30 08:18:42 51°13.553 2°56.271 4.4 110 11.7 102520 72
2002-09-30 08:18:46 51°13.552 2°56.27 2.8 84 11.7 102520 72
2002-09-30 08:18:51 51°13.55 2°56.269 2.4 97 11.8 102520 72
2002-09-30 08:18:57 51°13.548 2°56.267 2.6 86 11.9 102520 72
2002-09-30 08:19:02 51°13.546 2°56.266 2.9 101 11.9 102520 72
2002-09-30 08:19:06 51°13.545 2°56.265 3.2 97 11.9 102520 72
2002-09-30 08:19:12 51°13.543 2°56.264 2.8 100 11.8 102520 72
2002-09-30 08:19:17 51°13.542 2°56.264 2.6 97 11.8 102520 72
2002-09-30 08:19:20 51°13.542 2°56.263 1.8 83 11.8 102520 72
2002-09-30 08:19:26 51°13.541 2°56.263 2.1 87 11.8 102520 72
2002-09-30 08:19:31 51°13.542 2°56.263 1.5 74 11.8 102520 72
2002-09-30 08:19:36 51°13.542 2°56.263 1.6 87 11.8 102520 72
2002-09-30 08:19:41 51°13.543 2°56.263 2.6 98 11.8 102520 72
2002-09-30 08:19:46 51°13.544 2°56.263 2 97 11.8 102520 72
2002-09-30 08:19:51 51°13.545 2°56.263 2.1 88 11.8 102520 72
2002-09-30 08:19:56 51°13.546 2°56.263 2.5 103 11.8 102520 72
2002-09-30 08:20:01 51°13.547 2°56.263 2.7 96 11.8 102520 72
2002-09-30 08:20:06 51°13.547 2°56.263 2.8 101 11.8 102520 72
2002-09-30 08:20:10 51°13.548 2°56.263 3.1 85 11.9 102520 72
2002-09-30 08:20:14 51°13.548 2°56.263 3.2 76 11.9 102520 72
2002-09-30 08:20:21 51°13.549 2°56.264 2.9 78 11.9 102520 72
2002-09-30 08:20:25 51°13.548 2°56.264 3.2 98 11.9 102520 72
2002-09-30 08:20:29 51°13.548 2°56.264 2.9 83 11.9 102520 72
2002-09-30 08:20:34 51°13.548 2°56.264 2.9 84 11.9 102520 72
2002-09-30 08:20:41 51°13.547 2°56.264 3.4 89 11.9 102520 72
2002-09-30 08:20:46 51°13.545 2°56.265 3.7 71 11.9 102520 72
2002-09-30 08:20:49 51°13.545 2°56.265 3.9 85 11.9 102520 72
2002-09-30 08:20:54 51°13.543 2°56.265 3.2 74 11.9 102520 72
2002-09-30 08:21:02 51°13.541 2°56.265 2.8 74 11.9 102520 72
2002-09-30 08:21:07 51°13.539 2°56.265 3.1 62 11.9 102520 72
2002-09-30 08:21:11 51°13.537 2°56.265 3.1 81 11.9 102520 72
2002-09-30 08:21:17 51°13.535 2°56.265 2.6 73 11.9 102520 72
2002-09-30 08:21:22 51°13.533 2°56.265 2.9 85 11.9 102520 72
2002-09-30 08:21:27 51°13.532 2°56.265 2.2 64 11.9 102520 72
2002-09-30 08:21:31 51°13.531 2°56.265 2.2 92 12 102520 72
2002-09-30 08:21:35 51°13.53 2°56.265 1.7 86 12 102520 72
2002-09-30 08:21:42 51°13.529 2°56.264 1.9 88 12 102520 72
2002-09-30 08:21:46 51°13.529 2°56.264 2.3 72 12 102520 72
2002-09-30 08:21:51 51°13.528 2°56.264 1.5 45 12 102520 72
2002-09-30 08:21:55 51°13.529 2°56.263 1.8 56 12 102520 72
2002-09-30 08:22:01 51°13.529 2°56.263 1.6 98 12 102520 72
2002-09-30 08:22:06 51°13.53 2°56.262 2.2 103 12 102520 72
2002-09-30 08:22:11 51°13.53 2°56.261 1.9 106 12 102520 72
2002-09-30 08:22:16 51°13.532 2°56.261 1.5 62 12 102520 72
2002-09-30 08:22:21 51°13.533 2°56.26 1.9 43 12 102520 72
2002-09-30 08:22:26 51°13.534 2°56.259 3.1 73 12 102520 72
2002-09-30 08:22:32 51°13.535 2°56.258 2.6 28 12 102520 72
2002-09-30 08:22:36 51°13.535 2°56.258 2.1 15 12 102520 72
2002-09-30 08:22:40 51°13.536 2°56.258 2.2 24 12 102520 72
2002-09-30 08:22:47 51°13.536 2°56.258 2.7 46 12 102520 72
2002-09-30 08:22:52 51°13.535 2°56.259 2.1 43 12.1 102520 72
2002-09-30 08:22:54 51°13.535 2°56.259 3.8 8 12.1 102520 72
2002-09-30 08:23:02 51°13.533 2°56.261 2 46 12.1 102520 72
2002-09-30 08:23:07 51°13.532 2°56.261 2.4 26 12.1 102520 72
2002-09-30 08:23:11 51°13.532 2°56.262 2.7 53 12.1 102520 72
2002-09-30 08:23:19 51°13.531 2°56.262 2.4 74 12.1 102520 72
2002-09-30 08:23:23 51°13.531 2°56.262 2.7 84 12.1 102520 72
2002-09-30 08:23:28 51°13.53 2°56.261 2.7 78 12.1 102520 72
2002-09-30 08:23:34 51°13.531 2°56.259 2.1 22 12.1 102520 72
2002-09-30 08:23:39 51°13.531 2°56.257 1.3 17 12.2 102520 72
2002-09-30 08:23:44 51°13.533 2°56.256 0.9 342 12.2 102520 72
2002-09-30 08:23:49 51°13.534 2°56.254 0.5 355 12.2 102520 71
2002-09-30 08:23:51 51°13.534 2°56.253 1.2 306 12.2 102520 71
2002-09-30 08:23:57 51°13.535 2°56.251 1.4 325 12.2 102520 71
2002-09-30 08:24:03 51°13.537 2°56.247 2.8 348 12.2 102520 71
2002-09-30 08:24:08 51°13.538 2°56.244 1.8 339 12.2 102520 71
2002-09-30 08:24:12 51°13.539 2°56.241 1.8 339 12.2 102520 71
2002-09-30 08:24:18 51°13.541 2°56.235 1.3 338 12.2 102530 71
2002-09-30 08:24:22 51°13.542 2°56.231 1.6 345 12.2 102530 71
2002-09-30 08:24:28 51°13.543 2°56.224 1 329 12.2 102520 71
2002-09-30 08:24:33 51°13.545 2°56.218 1.2 346 12.2 102520 71
2002-09-30 08:24:38 51°13.546 2°56.212 2.1 308 12.2 102530 71
2002-09-30 08:24:42 51°13.547 2°56.207 1.5 300 12.2 102530 71
2002-09-30 08:24:45 51°13.548 2°56.202 2.2 324 12.2 102520 71
2002-09-30 08:24:51 51°13.55 2°56.193 3.1 293 12.2 102520 71
2002-09-30 08:24:54 51°13.551 2°56.189 2.9 314 12.2 102520 71
2002-09-30 08:25:03 51°13.554 2°56.175 3.1 306 12.2 102520 71
2002-09-30 08:25:08 51°13.556 2°56.167 2.8 307 12.3 102520 71
2002-09-30 08:25:11 51°13.557 2°56.162 1.2 341 12.3 102520 71
2002-09-30 08:25:17 51°13.559 2°56.152 1.8 296 12.2 102520 71
2002-09-30 08:25:23 51°13.562 2°56.142 2.2 295 12.2 102520 71
2002-09-30 08:25:27 51°13.564 2°56.135 2.4 289 12.3 102520 71
2002-09-30 08:25:33 51°13.567 2°56.125 2.5 290 12.3 102520 71
2002-09-30 08:25:37 51°13.569 2°56.118 1.3 344 12.3 102520 71
2002-09-30 08:25:42 51°13.571 2°56.108 1.9 302 12.3 102520 71
2002-09-30 08:25:46 51°13.573 2°56.101 3.3 290 12.3 102520 71
2002-09-30 08:25:51 51°13.576 2°56.091 3.4 275 12.3 102520 71
2002-09-30 08:25:58 51°13.58 2°56.079 2.7 276 12.3 102520 71
2002-09-30 08:26:03 51°13.582 2°56.069 2.4 307 12.3 102520 71
2002-09-30 08:26:08 51°13.585 2°56.06 1 342 12.3 102520 71
2002-09-30 08:26:13 51°13.588 2°56.05 0.7 310 12.3 102520 71
2002-09-30 08:26:17 51°13.591 2°56.042 1.9 336 12.3 102520 71
2002-09-30 08:26:23 51°13.595 2°56.031 2.4 306 12.3 102520 71
2002-09-30 08:26:27 51°13.597 2°56.023 0.9 342 12.3 102520 71
2002-09-30 08:26:32 51°13.601 2°56.014 0.5 303 12.3 102520 71
2002-09-30 08:26:37 51°13.604 2°56.004 1 325 12.3 102520 71
2002-09-30 08:26:43 51°13.608 2°55.993 1 314 12.3 102520 71
2002-09-30 08:26:48 51°13.612 2°55.983 1.4 340 12.3 102520 71
2002-09-30 08:26:52 51°13.615 2°55.976 2.2 302 12.3 102520 71
2002-09-30 08:26:57 51°13.619 2°55.966 1.4 305 12.4 102520 71
2002-09-30 08:27:02 51°13.623 2°55.956 2.5 292 12.4 102520 71
2002-09-30 08:27:06 51°13.626 2°55.948 1.9 333 12.4 102520 71
2002-09-30 08:27:11 51°13.63 2°55.939 0.8 350 12.4 102520 71
2002-09-30 08:27:18 51°13.635 2°55.925 1.7 343 12.4 102520 71
2002-09-30 08:27:22 51°13.638 2°55.917 1.9 348 12.4 102520 71
2002-09-30 08:27:26 51°13.641 2°55.909 1.7 328 12.4 102520 71
2002-09-30 08:27:31 51°13.645 2°55.899 1 331 12.4 102520 71
2002-09-30 08:27:37 51°13.649 2°55.887 2.5 300 12.4 102520 70
2002-09-30 08:27:42 51°13.653 2°55.877 1.7 273 12.4 102520 70
2002-09-30 08:27:46 51°13.656 2°55.869 1.5 329 12.4 102520 70
2002-09-30 08:27:51 51°13.66 2°55.86 0.8 313 12.4 102520 70
2002-09-30 08:27:57 51°13.665 2°55.848 1.5 262 12.4 102520 70
2002-09-30 08:28:03 51°13.67 2°55.836 2.1 260 12.4 102520 70
2002-09-30 08:28:07 51°13.673 2°55.828 2 308 12.4 102520 70
2002-09-30 08:28:11 51°13.677 2°55.82 1.8 262 12.4 102520 70
2002-09-30 08:28:16 51°13.681 2°55.81 1.8 310 12.4 102520 70
2002-09-30 08:28:21 51°13.685 2°55.801 1.2 357 12.4 102520 70
2002-09-30 08:28:28 51°13.691 2°55.787 1.3 328 12.4 102520 70
2002-09-30 08:28:31 51°13.694 2°55.782 0.9 298 12.4 102520 70
2002-09-30 08:28:38 51°13.701 2°55.769 0.6 301 12.4 102520 70
2002-09-30 08:28:43 51°13.706 2°55.761 1.4 309 12.4 102520 70
2002-09-30 08:28:46 51°13.709 2°55.756 1.3 322 12.5 102520 70
2002-09-30 08:28:52 51°13.715 2°55.746 0.9 351 12.5 102520 70
2002-09-30 08:28:58 51°13.722 2°55.736 0.5 327 12.5 102520 70
2002-09-30 08:29:02 51°13.726 2°55.73 0.5 321 12.5 102520 70
2002-09-30 08:29:07 51°13.732 2°55.722 0.3 329 12.5 102520 70
2002-09-30 08:29:10 51°13.735 2°55.717 0.3 330 12.5 102520 70
2002-09-30 08:29:17 51°13.743 2°55.707 0.3 294 12.5 102520 70
2002-09-30 08:29:22 51°13.749 2°55.7 0.3 252 12.5 102520 70
2002-09-30 08:29:27 51°13.755 2°55.693 0.2 253 12.5 102520 70
2002-09-30 08:29:32 51°13.761 2°55.686 0.2 189 12.5 102520 70
2002-09-30 08:29:34 51°13.764 2°55.683 0.8 110 12.6 102520 71
2002-09-30 08:29:42 51°13.774 2°55.674 0.8 97 12.6 102520 71
2002-09-30 08:29:46 51°13.779 2°55.669 0.8 112 12.6 102520 71
2002-09-30 08:29:49 51°13.784 2°55.666 1.6 152 12.6 102520 71
2002-09-30 08:29:57 51°13.795 2°55.657 1.4 153 12.6 102520 71
2002-09-30 08:30:07 51°13.81 2°55.647 1.1 105 12.7 102520 71
2002-09-30 08:30:11 51°13.815 2°55.643 0.9 97 12.7 102520 71
2002-09-30 08:30:17 51°13.824 2°55.636 0.8 102 12.7 102520 71
2002-09-30 08:30:22 51°13.832 2°55.63 0.7 99 12.7 102520 71
2002-09-30 08:30:27 51°13.839 2°55.625 1.2 85 12.8 102520 71
2002-09-30 08:30:32 51°13.847 2°55.619 1.3 82 12.8 102520 71
2002-09-30 08:30:37 51°13.854 2°55.613 0.9 92 12.8 102520 71
2002-09-30 08:30:42 51°13.862 2°55.607 0.7 73 12.8 102520 71
2002-09-30 08:30:47 51°13.87 2°55.601 1.2 65 12.8 102520 71
2002-09-30 08:30:52 51°13.878 2°55.596 0.5 99 12.8 102520 71
2002-09-30 08:31:02 51°13.893 2°55.584 0.1 126 12.9 102520 71
2002-09-30 08:31:07 51°13.902 2°55.578 0.1 131 12.9 102510 71
2002-09-30 08:31:12 51°13.91 2°55.572 0.2 136 12.9 102510 71
2002-09-30 08:31:17 51°13.917 2°55.565 0.4 186 12.9 102520 71
2002-09-30 08:31:23 51°13.927 2°55.558 0.7 205 12.9 102520 71
2002-09-30 08:31:26 51°13.932 2°55.554 0.3 145 13 102520 71
2002-09-30 08:31:30 51°13.938 2°55.549 0.7 124 13 102520 71
2002-09-30 08:31:37 51°13.95 2°55.541 0.5 147 13 102520 71
2002-09-30 08:31:42 51°13.958 2°55.534 0.4 126 13 102520 71
2002-09-30 08:31:46 51°13.964 2°55.529 0.3 181 13.1 102520 71
2002-09-30 08:31:52 51°13.974 2°55.522 0.2 154 13.1 102520 71
2002-09-30 08:31:57 51°13.983 2°55.516 0.1 155 13.1 102520 71
2002-09-30 08:32:02 51°13.991 2°55.51 0.4 216 13.1 102520 71
2002-09-30 08:32:05 51°13.996 2°55.506 0.3 259 13.1 102520 71
2002-09-30 08:32:09 51°14.002 2°55.501 0.4 141 13.1 102520 71
2002-09-30 08:32:17 51°14.016 2°55.492 0.6 123 13.2 102520 71
2002-09-30 08:32:22 51°14.024 2°55.486 0.5 121 13.2 102520 71
2002-09-30 08:32:26 51°14.031 2°55.481 0.4 121 13.2 102520 71
2002-09-30 08:32:31 51°14.039 2°55.475 0.4 114 13.2 102520 71
2002-09-30 08:32:35 51°14.046 2°55.47 0.3 114 13.3 102510 71
2002-09-30 08:32:42 51°14.057 2°55.462 0.2 115 13.3 102510 71
2002-09-30 08:32:46 51°14.064 2°55.457 0.2 109 13.3 102520 71
2002-09-30 08:32:51 51°14.072 2°55.452 0.2 83 13.3 102520 71
2002-09-30 08:32:57 51°14.082 2°55.444 0.6 74 13.3 102520 71
2002-09-30 08:33:02 51°14.091 2°55.438 0.4 54 13.3 102520 71
2002-09-30 08:33:07 51°14.1 2°55.432 1.2 89 13.4 102510 71
2002-09-30 08:33:11 51°14.106 2°55.427 1.2 89 13.4 102510 71
2002-09-30 08:33:17 51°14.117 2°55.42 0.8 59 13.4 102510 71
2002-09-30 08:33:22 51°14.125 2°55.413 1.3 61 13.4 102510 71
2002-09-30 08:33:27 51°14.134 2°55.406 1.3 70 13.4 102510 71
2002-09-30 08:33:31 51°14.14 2°55.401 1.7 52 13.4 102510 71
2002-09-30 08:33:37 51°14.151 2°55.392 1.9 70 13.5 102510 71
2002-09-30 08:33:42 51°14.159 2°55.385 1.4 65 13.5 102510 71
2002-09-30 08:33:47 51°14.168 2°55.378 1.1 66 13.5 102510 70
2002-09-30 08:33:52 51°14.177 2°55.37 0.9 67 13.5 102510 70
2002-09-30 08:33:57 51°14.186 2°55.362 0.9 57 13.5 102510 70
2002-09-30 08:34:02 51°14.195 2°55.353 0.7 30 13.5 102510 70
2002-09-30 08:34:07 51°14.204 2°55.344 0.8 351 13.5 102510 70
2002-09-30 08:34:11 51°14.211 2°55.336 1 239 13.5 102510 70
2002-09-30 08:34:17 51°14.222 2°55.323 1.3 299 13.6 102510 70
2002-09-30 08:34:22 51°14.23 2°55.312 1.6 275 13.6 102510 70
2002-09-30 08:34:26 51°14.237 2°55.303 1.9 274 13.6 102510 70
2002-09-30 08:34:31 51°14.245 2°55.291 1.7 318 13.6 102510 70
2002-09-30 08:34:37 51°14.255 2°55.276 1.1 307 13.6 102510 69
2002-09-30 08:34:42 51°14.263 2°55.263 0.9 345 13.6 102510 69
2002-09-30 08:34:46 51°14.269 2°55.252 1.7 339 13.6 102510 69
2002-09-30 08:34:52 51°14.278 2°55.236 1.7 335 13.6 102510 69
2002-09-30 08:34:56 51°14.284 2°55.224 1.7 337 13.6 102510 69
2002-09-30 08:35:03 51°14.294 2°55.204 1.2 344 13.6 102510 69
2002-09-30 08:35:07 51°14.3 2°55.192 0.8 331 13.6 102510 68
2002-09-30 08:35:13 51°14.308 2°55.173 1.1 345 13.6 102510 68
2002-09-30 08:35:17 51°14.313 2°55.161 0.7 341 13.5 102510 68
2002-09-30 08:35:22 51°14.32 2°55.146 0.6 345 13.5 102510 68
2002-09-30 08:35:27 51°14.327 2°55.13 1.5 306 13.5 102510 67
2002-09-30 08:35:31 51°14.332 2°55.118 2.4 304 13.5 102510 67
2002-09-30 08:35:34 51°14.336 2°55.109 2.3 293 13.4 102500 67
2002-09-30 08:35:42 51°14.347 2°55.083 1.9 290 13.4 102500 67
2002-09-30 08:35:47 51°14.353 2°55.066 1.7 336 13.4 102500 66
2002-09-30 08:35:51 51°14.359 2°55.053 1.4 342 13.4 102500 66
2002-09-30 08:35:57 51°14.368 2°55.033 1.8 332 13.3 102510 66
2002-09-30 08:36:01 51°14.373 2°55.019 1.8 346 13.3 102510 66
2002-09-30 08:36:07 51°14.382 2°54.998 1.9 314 13.3 102500 66
2002-09-30 08:36:13 51°14.392 2°54.976 2.8 303 13.3 102500 66
2002-09-30 08:36:17 51°14.398 2°54.961 3.4 298 13.3 102510 67
2002-09-30 08:36:22 51°14.406 2°54.942 2.7 306 13.3 102510 67
2002-09-30 08:36:25 51°14.41 2°54.93 3.1 301 13.3 102500 67
2002-09-30 08:36:31 51°14.419 2°54.907 3.9 294 13.3 102500 67
2002-09-30 08:36:34 51°14.423 2°54.894 3.8 294 13.3 102500 67
2002-09-30 08:36:43 51°14.434 2°54.856 3.8 304 13.3 102500 67
2002-09-30 08:36:47 51°14.438 2°54.839 7 297 13.3 102500 67
2002-09-30 08:36:51 51°14.442 2°54.821 6.4 293 13.3 102500 67
2002-09-30 08:36:57 51°14.446 2°54.794 6.1 291 13.3 102500 67
2002-09-30 08:37:03 51°14.45 2°54.766 7.4 290 13.3 102500 67
2002-09-30 08:37:07 51°14.453 2°54.748 7.9 290 13.3 102500 67
2002-09-30 08:37:13 51°14.455 2°54.72 7.9 289 13.3 102500 67
2002-09-30 08:37:17 51°14.456 2°54.701 7.8 284 13.3 102500 67
2002-09-30 08:37:22 51°14.457 2°54.678 8.6 294 13.3 102500 67
2002-09-30 08:37:25 51°14.457 2°54.663 7.6 293 13.3 102490 66
2002-09-30 08:37:31 51°14.458 2°54.635 7.1 293 13.3 102490 66
2002-09-30 08:37:34 51°14.458 2°54.621 7.1 294 13.2 102490 66
2002-09-30 08:37:42 51°14.459 2°54.583 8.1 293 13.2 102490 66
2002-09-30 08:37:47 51°14.459 2°54.559 7.2 285 13.2 102490 66
2002-09-30 08:37:51 51°14.458 2°54.54 7.4 278 13.2 102490 66
2002-09-30 08:37:57 51°14.457 2°54.512 8.2 279 13.2 102490 66
2002-09-30 08:38:02 51°14.454 2°54.489 8.2 274 13.2 102490 66
2002-09-30 08:38:06 51°14.45 2°54.471 9.4 275 13.2 102490 66
2002-09-30 08:38:12 51°14.445 2°54.444 11.1 277 13.2 102490 66
2002-09-30 08:38:17 51°14.439 2°54.423 10.6 272 13.2 102490 66
2002-09-30 08:38:21 51°14.433 2°54.405 11.2 272 13.2 102490 66
2002-09-30 08:38:27 51°14.425 2°54.379 11.6 273 13.2 102480 67
2002-09-30 08:38:33 51°14.416 2°54.353 11.1 270 13.2 102480 67
2002-09-30 08:38:39 51°14.407 2°54.327 11.2 276 13.2 102480 67
2002-09-30 08:38:43 51°14.401 2°54.31 11.7 278 13.2 102480 67
2002-09-30 08:38:47 51°14.395 2°54.292 10.4 275 13.2 102470 67
2002-09-30 08:38:51 51°14.388 2°54.274 10.2 270 13.2 102470 67
2002-09-30 08:38:57 51°14.379 2°54.248 12 269 13.2 102470 66
2002-09-30 08:39:03 51°14.369 2°54.221 12.6 273 13.2 102470 66
2002-09-30 08:39:07 51°14.362 2°54.203 11.5 276 13.2 102470 66
2002-09-30 08:39:11 51°14.356 2°54.185 12.7 274 13.2 102470 66
2002-09-30 08:39:17 51°14.346 2°54.156 11.8 275 13.2 102470 67
2002-09-30 08:39:21 51°14.34 2°54.138 11.7 272 13.2 102470 67
2002-09-30 08:39:27 51°14.33 2°54.109 11.5 276 13.1 102460 66
2002-09-30 08:39:31 51°14.323 2°54.089 11.3 272 13.1 102460 66
2002-09-30 08:39:37 51°14.314 2°54.06 12.2 271 13.1 102460 67
2002-09-30 08:39:43 51°14.304 2°54.03 11.8 268 13.1 102460 67
2002-09-30 08:39:47 51°14.297 2°54.011 11.6 270 13.1 102460 67
2002-09-30 08:39:51 51°14.291 2°53.991 11.2 273 13.1 102460 67
2002-09-30 08:39:57 51°14.281 2°53.961 12.1 273 13.1 102460 66
2002-09-30 08:40:01 51°14.274 2°53.942 11.6 276 13.1 102460 66
2002-09-30 08:40:07 51°14.264 2°53.912 11.8 276 13.1 102470 67
2002-09-30 08:40:13 51°14.254 2°53.882 11.8 276 13.1 102470 67
2002-09-30 08:40:14 51°14.252 2°53.877 11.3 276 13 102460 67
2002-09-30 08:40:23 51°14.238 2°53.832 12.5 275 13 102460 67
2002-09-30 08:40:27 51°14.231 2°53.812 11.5 272 13 102470 67
2002-09-30 08:40:29 51°14.228 2°53.802 12 276 13 102470 67
2002-09-30 08:40:35 51°14.218 2°53.772 11.8 273 13 102460 67
2002-09-30 08:40:43 51°14.204 2°53.731 12.2 274 13 102460 67
2002-09-30 08:40:47 51°14.197 2°53.711 11.9 279 13 102470 67
2002-09-30 08:40:51 51°14.189 2°53.691 11.5 272 13 102470 67
2002-09-30 08:40:57 51°14.178 2°53.662 11.1 273 13 102470 67
2002-09-30 08:41:02 51°14.168 2°53.637 11.4 269 13 102470 67
2002-09-30 08:41:06 51°14.16 2°53.618 11.8 268 13 102470 67
2002-09-30 08:41:11 51°14.15 2°53.594 11.4 266 13 102470 67
2002-09-30 08:41:17 51°14.138 2°53.565 11.1 267 13 102470 68
2002-09-30 08:41:22 51°14.128 2°53.54 11.3 267 13 102470 68
2002-09-30 08:41:27 51°14.118 2°53.516 11.9 266 13 102470 69
2002-09-30 08:41:31 51°14.11 2°53.497 11.3 270 13 102470 69
2002-09-30 08:41:37 51°14.097 2°53.468 11.6 268 13 102470 69
2002-09-30 08:41:42 51°14.087 2°53.443 11.3 265 13 102470 69
2002-09-30 08:41:47 51°14.078 2°53.419 12.3 267 13 102470 68
2002-09-30 08:41:52 51°14.068 2°53.394 10.7 269 13 102470 68
2002-09-30 08:41:57 51°14.058 2°53.369 10.8 273 12.9 102470 68
2002-09-30 08:42:02 51°14.049 2°53.344 10.9 269 12.9 102470 68
2002-09-30 08:42:07 51°14.039 2°53.319 11.2 272 12.9 102470 69
2002-09-30 08:42:11 51°14.032 2°53.299 12.1 273 12.9 102470 69
2002-09-30 08:42:17 51°14.02 2°53.269 12.4 270 12.9 102470 68
2002-09-30 08:42:22 51°14.011 2°53.244 10.8 275 12.9 102470 68
2002-09-30 08:42:27 51°14.002 2°53.218 11.4 274 12.9 102470 69
2002-09-30 08:42:32 51°13.992 2°53.193 10.3 277 12.9 102470 69
2002-09-30 08:42:36 51°13.985 2°53.172 10.2 271 12.9 102470 69
2002-09-30 08:42:43 51°13.973 2°53.136 10.3 274 12.9 102470 69
2002-09-30 08:42:47 51°13.966 2°53.115 11.6 271 12.9 102470 69
2002-09-30 08:42:51 51°13.958 2°53.095 11.1 274 12.9 102470 69
2002-09-30 08:42:55 51°13.952 2°53.074 11.6 268 12.8 102470 69
2002-09-30 08:43:03 51°13.937 2°53.033 11.6 267 12.8 102470 69
2002-09-30 08:43:07 51°13.93 2°53.012 11 270 12.8 102470 70
2002-09-30 08:43:12 51°13.921 2°52.986 11 271 12.8 102470 70
2002-09-30 08:43:17 51°13.913 2°52.96 11.6 275 12.9 102470 70
2002-09-30 08:43:22 51°13.904 2°52.934 11.1 274 12.9 102470 70
2002-09-30 08:43:26 51°13.897 2°52.914 10.2 273 12.8 102470 70
2002-09-30 08:43:32 51°13.886 2°52.883 10.9 272 12.8 102470 70
2002-09-30 08:43:36 51°13.878 2°52.862 10.4 272 12.8 102470 70
2002-09-30 08:43:42 51°13.868 2°52.832 10.5 266 12.8 102470 70
2002-09-30 08:43:47 51°13.859 2°52.806 10.7 267 12.8 102470 70
2002-09-30 08:43:53 51°13.847 2°52.775 11 268 12.8 102470 70
2002-09-30 08:43:57 51°13.84 2°52.755 11.3 274 12.8 102470 70
2002-09-30 08:44:02 51°13.831 2°52.73 10.8 273 12.8 102470 70
2002-09-30 08:44:07 51°13.822 2°52.704 10.5 273 12.8 102470 70
2002-09-30 08:44:12 51°13.813 2°52.678 10.8 271 12.8 102470 70
2002-09-30 08:44:17 51°13.805 2°52.653 10.7 268 12.8 102470 70
2002-09-30 08:44:22 51°13.796 2°52.626 10.9 273 12.8 102470 70
2002-09-30 08:44:27 51°13.787 2°52.6 11.8 270 12.8 102480 70
2002-09-30 08:44:31 51°13.781 2°52.58 11.3 269 12.8 102480 70
2002-09-30 08:44:37 51°13.77 2°52.548 11.1 274 12.8 102470 71
2002-09-30 08:44:42 51°13.762 2°52.522 10.9 272 12.8 102470 71
2002-09-30 08:44:46 51°13.755 2°52.501 10.7 272 12.8 102470 71
2002-09-30 08:44:51 51°13.747 2°52.475 10.2 269 12.8 102470 71
2002-09-30 08:44:56 51°13.738 2°52.449 10.7 270 12.8 102470 70
2002-09-30 08:45:01 51°13.73 2°52.423 10 274 12.8 102470 70
2002-09-30 08:45:07 51°13.721 2°52.392 10.6 273 12.8 102470 70
2002-09-30 08:45:11 51°13.713 2°52.37 11 273 12.8 102470 70
2002-09-30 08:45:17 51°13.703 2°52.338 10.5 268 12.8 102470 70
2002-09-30 08:45:22 51°13.694 2°52.311 11.1 266 12.8 102470 70
2002-09-30 08:45:25 51°13.688 2°52.295 11.7 266 12.8 102470 71
2002-09-30 08:45:30 51°13.679 2°52.268 11.2 267 12.8 102470 71
2002-09-30 08:45:37 51°13.667 2°52.23 11.4 272 12.8 102470 71
2002-09-30 08:45:42 51°13.657 2°52.203 12.1 271 12.8 102470 71
2002-09-30 08:45:46 51°13.65 2°52.181 12.4 268 12.8 102470 71
2002-09-30 08:45:52 51°13.639 2°52.149 12.5 271 12.8 102470 71
2002-09-30 08:45:57 51°13.629 2°52.122 12.5 273 12.8 102460 71
2002-09-30 08:46:02 51°13.619 2°52.095 12.1 272 12.8 102460 71
2002-09-30 08:46:07 51°13.61 2°52.069 11.5 271 12.8 102460 71
2002-09-30 08:46:11 51°13.602 2°52.047 11.2 276 12.8 102460 71
2002-09-30 08:46:17 51°13.591 2°52.015 10.7 271 12.7 102460 71
2002-09-30 08:46:22 51°13.581 2°51.988 11.8 272 12.7 102460 71
2002-09-30 08:46:27 51°13.572 2°51.961 12.1 270 12.7 102470 71
2002-09-30 08:46:31 51°13.565 2°51.939 11.7 269 12.7 102470 71
2002-09-30 08:46:35 51°13.557 2°51.917 11.1 272 12.7 102470 71
2002-09-30 08:46:42 51°13.544 2°51.879 10.8 273 12.7 102470 71
2002-09-30 08:46:46 51°13.537 2°51.858 11 270 12.7 102470 71
2002-09-30 08:46:51 51°13.527 2°51.831 11.6 272 12.7 102470 71
2002-09-30 08:46:56 51°13.518 2°51.804 11.3 275 12.7 102470 71
2002-09-30 08:47:01 51°13.509 2°51.777 11.4 274 12.7 102470 71
2002-09-30 08:47:07 51°13.497 2°51.744 11.6 274 12.7 102470 71
2002-09-30 08:47:10 51°13.492 2°51.728 10.2 273 12.7 102470 71
2002-09-30 08:47:17 51°13.479 2°51.69 11.4 275 12.7 102470 71
2002-09-30 08:47:22 51°13.47 2°51.663 11.2 273 12.7 102470 71
2002-09-30 08:47:27 51°13.46 2°51.637 10.8 275 12.7 102470 71
2002-09-30 08:47:31 51°13.453 2°51.615 10.5 269 12.7 102470 71
2002-09-30 08:47:35 51°13.446 2°51.594 11.1 269 12.7 102470 71
2002-09-30 08:47:42 51°13.433 2°51.556 11.1 274 12.7 102470 71
2002-09-30 08:47:47 51°13.424 2°51.529 11.1 271 12.7 102460 71
2002-09-30 08:47:52 51°13.415 2°51.502 11.1 274 12.7 102460 71
2002-09-30 08:47:55 51°13.409 2°51.485 10.5 276 12.7 102470 72
2002-09-30 08:48:02 51°13.396 2°51.447 10.5 278 12.7 102470 72
2002-09-30 08:48:07 51°13.387 2°51.419 10.9 271 12.7 102470 72
2002-09-30 08:48:12 51°13.378 2°51.392 10.8 275 12.7 102470 72
2002-09-30 08:48:17 51°13.369 2°51.364 10.7 270 12.7 102470 72
2002-09-30 08:48:22 51°13.36 2°51.336 11.1 268 12.7 102470 72
2002-09-30 08:48:25 51°13.354 2°51.32 12.8 270 12.7 102470 72
2002-09-30 08:48:29 51°13.347 2°51.298 11.8 273 12.7 102470 72
2002-09-30 08:48:34 51°13.338 2°51.27 11.3 270 12.7 102470 72
2002-09-30 08:48:42 51°13.323 2°51.227 11.8 270 12.7 102470 72
2002-09-30 08:48:47 51°13.314 2°51.2 11.2 270 12.8 102470 72
2002-09-30 08:48:49 51°13.31 2°51.189 11 267 12.8 102470 72
2002-09-30 08:48:57 51°13.295 2°51.145 12.1 272 12.7 102460 72
2002-09-30 08:49:02 51°13.286 2°51.118 11.7 277 12.7 102460 72
2002-09-30 08:49:06 51°13.279 2°51.096 10.9 266 12.7 102460 71
2002-09-30 08:49:12 51°13.267 2°51.064 11.7 273 12.7 102460 71
2002-09-30 08:49:17 51°13.258 2°51.037 10.9 277 12.7 102470 71
2002-09-30 08:49:22 51°13.248 2°51.01 11 270 12.7 102470 71
2002-09-30 08:49:26 51°13.241 2°50.988 11.5 268 12.7 102460 72
2002-09-30 08:49:32 51°13.229 2°50.956 11.1 271 12.7 102460 72
2002-09-30 08:49:37 51°13.22 2°50.929 10.3 269 12.7 102460 72
2002-09-30 08:49:42 51°13.21 2°50.902 10.7 272 12.7 102460 72
2002-09-30 08:49:47 51°13.2 2°50.875 11.2 269 12.7 102470 72
2002-09-30 08:49:51 51°13.193 2°50.853 11.1 271 12.7 102470 72
2002-09-30 08:49:57 51°13.182 2°50.82 10.6 273 12.7 102470 71
2002-09-30 08:50:02 51°13.172 2°50.793 10.9 275 12.7 102470 71
2002-09-30 08:50:07 51°13.163 2°50.766 11 276 12.7 102470 72
2002-09-30 08:50:10 51°13.157 2°50.749 11 274 12.7 102470 72
2002-09-30 08:50:17 51°13.144 2°50.711 10.5 275 12.7 102470 71
2002-09-30 08:50:22 51°13.135 2°50.684 10.5 271 12.7 102470 71
2002-09-30 08:50:27 51°13.126 2°50.656 11.1 271 12.7 102470 72
2002-09-30 08:50:32 51°13.116 2°50.629 11 268 12.7 102470 72
2002-09-30 08:50:37 51°13.107 2°50.602 10.8 271 12.7 102470 72
2002-09-30 08:50:42 51°13.098 2°50.574 11 271 12.7 102470 72
2002-09-30 08:50:47 51°13.089 2°50.547 11.6 274 12.7 102470 72
2002-09-30 08:50:50 51°13.083 2°50.53 11.3 272 12.7 102470 72
2002-09-30 08:50:57 51°13.07 2°50.492 11.5 275 12.7 102470 72
2002-09-30 08:51:02 51°13.061 2°50.465 11 275 12.7 102470 72
2002-09-30 08:51:07 51°13.052 2°50.438 10.5 275 12.7 102460 72
2002-09-30 08:51:09 51°13.048 2°50.427 10.2 272 12.7 102460 72
2002-09-30 08:51:17 51°13.033 2°50.383 11.5 270 12.7 102470 72
2002-09-30 08:51:22 51°13.024 2°50.355 11.7 271 12.7 102470 72
2002-09-30 08:51:27 51°13.015 2°50.328 12.5 272 12.7 102460 72
2002-09-30 08:51:30 51°13.01 2°50.311 11.9 273 12.7 102460 72
2002-09-30 08:51:37 51°12.997 2°50.273 11.4 273 12.7 102470 72
2002-09-30 08:51:42 51°12.988 2°50.246 11.4 274 12.7 102470 72
2002-09-30 08:51:45 51°12.983 2°50.229 10.9 272 12.7 102460 72
2002-09-30 08:51:51 51°12.972 2°50.197 10.8 271 12.7 102460 72
2002-09-30 08:51:54 51°12.966 2°50.18 11.4 271 12.7 102460 72
2002-09-30 08:52:02 51°12.951 2°50.137 11.3 272 12.7 102460 72
2002-09-30 08:52:07 51°12.941 2°50.11 11.5 269 12.7 102460 71
2002-09-30 08:52:10 51°12.935 2°50.094 11.4 274 12.7 102460 71
2002-09-30 08:52:17 51°12.921 2°50.057 11.2 273 12.7 102460 72
2002-09-30 08:52:22 51°12.912 2°50.03 10.9 276 12.7 102460 72
2002-09-30 08:52:26 51°12.904 2°50.008 11.2 268 12.7 102460 72
2002-09-30 08:52:29 51°12.898 2°49.992 11.4 271 12.7 102460 72
2002-09-30 08:52:35 51°12.887 2°49.959 11 276 12.7 102470 72
2002-09-30 08:52:42 51°12.875 2°49.92 10.7 277 12.7 102470 72
2002-09-30 08:52:47 51°12.866 2°49.893 9.5 274 12.7 102460 72
2002-09-30 08:52:52 51°12.857 2°49.865 10.1 274 12.7 102460 72
2002-09-30 08:52:55 51°12.852 2°49.849 11.3 273 12.7 102460 72
2002-09-30 08:53:02 51°12.839 2°49.81 11.8 273 12.7 102460 72
2002-09-30 08:53:07 51°12.83 2°49.782 11.8 274 12.7 102470 72
2002-09-30 08:53:12 51°12.821 2°49.755 10.7 274 12.7 102470 72
2002-09-30 08:53:17 51°12.812 2°49.728 11.1 276 12.7 102460 73
2002-09-30 08:53:26 51°12.794 2°49.679 10.8 276 12.7 102460 73
2002-09-30 08:53:30 51°12.787 2°49.658 11.1 273 12.7 102460 73
2002-09-30 08:53:34 51°12.779 2°49.636 10.7 275 12.7 102470 72
2002-09-30 08:53:40 51°12.767 2°49.604 10.8 273 12.7 102470 72
2002-09-30 08:53:46 51°12.756 2°49.572 10.9 272 12.7 102470 72
2002-09-30 08:53:51 51°12.746 2°49.544 10.5 275 12.7 102460 72
2002-09-30 08:53:56 51°12.737 2°49.517 11.2 275 12.7 102460 72
2002-09-30 08:54:01 51°12.728 2°49.49 11.5 272 12.7 102460 72
2002-09-30 08:54:06 51°12.719 2°49.462 10.4 275 12.7 102460 72
2002-09-30 08:54:11 51°12.711 2°49.434 10.6 277 12.7 102470 72
2002-09-30 08:54:14 51°12.705 2°49.417 10.8 271 12.7 102460 72
2002-09-30 08:54:21 51°12.694 2°49.378 10.3 269 12.7 102460 72
2002-09-30 08:54:26 51°12.686 2°49.35 11.4 272 12.7 102460 72
2002-09-30 08:54:31 51°12.678 2°49.322 10.5 276 12.7 102460 73
2002-09-30 08:54:36 51°12.67 2°49.293 10.5 278 12.7 102460 73
2002-09-30 08:54:39 51°12.666 2°49.276 10.2 275 12.8 102460 73
2002-09-30 08:54:46 51°12.655 2°49.236 10.8 273 12.8 102460 73
2002-09-30 08:54:50 51°12.649 2°49.213 10.8 272 12.8 102460 73
2002-09-30 08:54:54 51°12.643 2°49.19 10.1 273 12.8 102460 73
2002-09-30 08:55:00 51°12.634 2°49.156 10.6 273 12.8 102460 73
2002-09-30 08:55:06 51°12.624 2°49.122 10.4 273 12.8 102460 73
2002-09-30 08:55:10 51°12.618 2°49.099 11.4 271 12.8 102460 73
2002-09-30 08:55:15 51°12.61 2°49.071 10.5 272 12.8 102460 73
2002-09-30 08:55:21 51°12.6 2°49.037 11.2 275 12.8 102460 73
2002-09-30 08:55:26 51°12.592 2°49.009 10.3 274 12.8 102460 73
2002-09-30 08:55:31 51°12.585 2°48.98 10.9 275 12.8 102470 73
2002-09-30 08:55:36 51°12.577 2°48.952 10.6 273 12.8 102470 73
2002-09-30 08:55:39 51°12.572 2°48.935 10.3 272 12.8 102460 73
2002-09-30 08:55:46 51°12.561 2°48.895 10.8 274 12.8 102460 73
2002-09-30 08:55:51 51°12.553 2°48.867 10.7 274 12.8 102460 73
2002-09-30 08:55:56 51°12.545 2°48.839 10.5 274 12.8 102460 73
2002-09-30 08:56:01 51°12.537 2°48.81 10.9 269 12.8 102460 73
2002-09-30 08:56:06 51°12.529 2°48.782 10.4 272 12.8 102460 73
2002-09-30 08:56:10 51°12.523 2°48.76 11.4 269 12.8 102460 73
2002-09-30 08:56:16 51°12.513 2°48.726 11.4 273 12.8 102460 73
2002-09-30 08:56:21 51°12.505 2°48.698 11.2 274 12.8 102460 73
2002-09-30 08:56:25 51°12.498 2°48.675 10.9 278 12.8 102460 73
2002-09-30 08:56:29 51°12.491 2°48.653 10.7 275 12.8 102460 73
2002-09-30 08:56:34 51°12.483 2°48.625 10.3 276 12.8 102460 73
2002-09-30 08:56:39 51°12.474 2°48.597 10.9 270 12.8 102460 73
2002-09-30 08:56:46 51°12.463 2°48.558 10.8 274 12.8 102460 73
2002-09-30 08:56:50 51°12.456 2°48.536 10.3 271 12.8 102450 73
2002-09-30 08:56:54 51°12.449 2°48.513 11 272 12.8 102450 73
2002-09-30 08:56:59 51°12.441 2°48.485 11.2 275 12.8 102460 72
2002-09-30 08:57:06 51°12.43 2°48.446 10.9 276 12.8 102460 72
2002-09-30 08:57:10 51°12.423 2°48.423 11.1 275 12.8 102460 72
2002-09-30 08:57:16 51°12.414 2°48.389 10.4 270 12.8 102460 72
2002-09-30 08:57:21 51°12.406 2°48.36 11.6 274 12.8 102460 72
2002-09-30 08:57:26 51°12.398 2°48.332 11.6 271 12.8 102460 72
2002-09-30 08:57:29 51°12.393 2°48.315 11.3 269 12.8 102460 72
2002-09-30 08:57:34 51°12.386 2°48.286 11.1 273 12.8 102460 72
2002-09-30 08:57:41 51°12.375 2°48.246 11.3 273 12.9 102460 73
2002-09-30 08:57:46 51°12.367 2°48.218 10.4 271 12.9 102460 73
2002-09-30 08:57:51 51°12.359 2°48.189 10.2 273 12.9 102460 73
2002-09-30 08:57:54 51°12.354 2°48.172 10.7 269 12.9 102460 73
2002-09-30 08:58:00 51°12.344 2°48.138 11.6 269 12.9 102460 73
2002-09-30 08:58:06 51°12.334 2°48.103 12.3 274 12.9 102460 73
2002-09-30 08:58:10 51°12.328 2°48.081 12.4 273 12.9 102460 72
2002-09-30 08:58:14 51°12.321 2°48.058 11.8 279 12.9 102460 72
2002-09-30 08:58:19 51°12.313 2°48.029 11.1 278 12.9 102460 72
2002-09-30 08:58:26 51°12.302 2°47.99 11.8 281 12.9 102460 72
2002-09-30 08:58:30 51°12.295 2°47.967 11.2 273 12.9 102460 72
2002-09-30 08:58:36 51°12.285 2°47.933 11 270 12.9 102460 72
2002-09-30 08:58:41 51°12.277 2°47.905 11.8 270 12.9 102460 72
2002-09-30 08:58:45 51°12.27 2°47.883 11.5 272 12.9 102460 72
2002-09-30 08:58:50 51°12.261 2°47.855 11.2 275 12.9 102460 72
2002-09-30 08:58:53 51°12.256 2°47.838 11.3 274 12.9 102460 72
2002-09-30 08:59:02 51°12.241 2°47.787 11.2 272 12.9 102460 72
2002-09-30 08:59:07 51°12.233 2°47.759 10.9 277 12.9 102450 72
2002-09-30 08:59:12 51°12.224 2°47.731 10.3 271 12.9 102450 72
2002-09-30 08:59:17 51°12.216 2°47.702 10.9 274 12.9 102450 72
2002-09-30 08:59:22 51°12.208 2°47.674 10.7 274 12.9 102450 72
2002-09-30 08:59:27 51°12.2 2°47.646 11.1 276 13 102460 72
2002-09-30 08:59:31 51°12.194 2°47.623 11.3 273 13 102460 72
2002-09-30 08:59:36 51°12.186 2°47.595 10.9 273 12.9 102460 72
2002-09-30 08:59:42 51°12.176 2°47.56 11.3 272 12.9 102460 72
2002-09-30 08:59:47 51°12.169 2°47.532 11.3 276 12.9 102460 72
2002-09-30 08:59:49 51°12.165 2°47.52 10.7 276 12.9 102460 72
2002-09-30 08:59:57 51°12.153 2°47.475 10.9 272 12.9 102460 72
2002-09-30 09:00:02 51°12.145 2°47.447 11.7 270 12.9 102460 72
2002-09-30 09:00:07 51°12.137 2°47.418 11.1 276 12.9 102460 72
2002-09-30 09:00:11 51°12.131 2°47.396 11.2 276 12.9 102460 72
2002-09-30 09:00:17 51°12.121 2°47.361 10.8 274 13 102460 72
2002-09-30 09:00:22 51°12.114 2°47.333 10.9 271 13 102460 72
2002-09-30 09:00:27 51°12.105 2°47.305 10.8 268 13 102460 72
2002-09-30 09:00:32 51°12.097 2°47.277 11.9 269 13 102460 72
2002-09-30 09:00:35 51°12.092 2°47.26 11.6 274 13 102460 72
2002-09-30 09:00:42 51°12.081 2°47.22 11.4 276 13 102460 72
2002-09-30 09:00:47 51°12.072 2°47.192 12.6 275 13 102460 72
2002-09-30 09:00:53 51°12.063 2°47.158 11.4 277 13 102460 72
2002-09-30 09:00:57 51°12.056 2°47.135 11.4 276 13 102460 72
2002-09-30 09:01:02 51°12.048 2°47.107 11.6 278 13 102460 72
2002-09-30 09:01:07 51°12.04 2°47.079 10.5 269 13 102460 72
2002-09-30 09:01:12 51°12.032 2°47.05 11.3 268 13 102460 72
2002-09-30 09:01:17 51°12.024 2°47.022 11 276 13 102460 72
2002-09-30 09:01:22 51°12.016 2°46.994 10.6 279 13 102460 72
2002-09-30 09:01:27 51°12.009 2°46.965 10.7 276 13 102460 72
2002-09-30 09:01:31 51°12.003 2°46.942 10.1 275 13 102460 72
2002-09-30 09:01:37 51°11.994 2°46.908 9.7 275 13 102460 72
2002-09-30 09:01:42 51°11.986 2°46.879 11.2 274 13 102460 72
2002-09-30 09:01:47 51°11.978 2°46.85 11.8 276 13 102460 72
2002-09-30 09:01:51 51°11.972 2°46.827 11 279 13 102460 72
2002-09-30 09:01:57 51°11.963 2°46.793 10.7 277 13 102460 72
2002-09-30 09:02:02 51°11.956 2°46.764 11 273 13 102460 72
2002-09-30 09:02:07 51°11.948 2°46.735 11 274 13 102450 72
2002-09-30 09:02:12 51°11.941 2°46.706 11.1 275 13 102450 72
2002-09-30 09:02:17 51°11.934 2°46.677 10.5 276 13 102460 72
2002-09-30 09:02:22 51°11.926 2°46.648 10.7 272 13 102460 72
2002-09-30 09:02:26 51°11.921 2°46.625 11.8 273 13 102460 72
2002-09-30 09:02:31 51°11.914 2°46.596 11 281 13 102460 72
2002-09-30 09:02:37 51°11.905 2°46.562 11 278 13 102460 72
2002-09-30 09:02:41 51°11.899 2°46.538 11.3 274 13 102460 72
2002-09-30 09:02:47 51°11.89 2°46.504 11.3 272 13.1 102460 72
2002-09-30 09:02:51 51°11.884 2°46.481 11.6 276 13.1 102460 72
2002-09-30 09:02:57 51°11.875 2°46.446 11 277 13 102460 72
2002-09-30 09:03:02 51°11.868 2°46.417 12 277 13 102460 72
2002-09-30 09:03:07 51°11.86 2°46.388 11.2 272 13 102460 72
2002-09-30 09:03:12 51°11.853 2°46.36 11.6 279 13 102460 72
2002-09-30 09:03:17 51°11.846 2°46.331 11.4 280 13 102460 72
2002-09-30 09:03:21 51°11.84 2°46.307 11.3 278 13 102460 72
2002-09-30 09:03:27 51°11.831 2°46.273 11.1 282 13 102460 72
2002-09-30 09:03:32 51°11.824 2°46.244 10 280 13 102460 72
2002-09-30 09:03:37 51°11.816 2°46.215 10.8 287 13.1 102460 72
2002-09-30 09:03:42 51°11.809 2°46.186 11 283 13.1 102460 72
2002-09-30 09:03:47 51°11.802 2°46.157 10.8 278 13.1 102470 72
2002-09-30 09:03:52 51°11.795 2°46.128 10.6 277 13.1 102470 72
2002-09-30 09:03:57 51°11.787 2°46.099 10.5 272 13.1 102460 72
2002-09-30 09:04:02 51°11.78 2°46.07 11.5 271 13.1 102460 72
2002-09-30 09:04:06 51°11.774 2°46.047 10.5 275 13.1 102460 72
2002-09-30 09:04:12 51°11.765 2°46.012 10.4 277 13.1 102460 72
2002-09-30 09:04:17 51°11.758 2°45.983 10.5 279 13.1 102470 72
2002-09-30 09:04:22 51°11.75 2°45.954 11.1 273 13.1 102470 72
2002-09-30 09:04:27 51°11.742 2°45.926 10.5 278 13.2 102460 72
2002-09-30 09:04:32 51°11.734 2°45.897 10.8 271 13.2 102460 72
2002-09-30 09:04:37 51°11.727 2°45.868 11.2 276 13.2 102460 72
2002-09-30 09:04:42 51°11.72 2°45.839 10.3 277 13.2 102460 72
2002-09-30 09:04:47 51°11.712 2°45.81 11.2 281 13.2 102460 72
2002-09-30 09:04:51 51°11.707 2°45.786 10.8 279 13.2 102460 72
2002-09-30 09:04:57 51°11.699 2°45.751 10.7 283 13.2 102460 72
2002-09-30 09:05:02 51°11.692 2°45.722 11 282 13.2 102460 72
2002-09-30 09:05:07 51°11.685 2°45.692 10.7 277 13.2 102470 72
2002-09-30 09:05:12 51°11.679 2°45.663 10.4 281 13.2 102470 72
2002-09-30 09:05:17 51°11.672 2°45.633 10.1 278 13.2 102460 71
2002-09-30 09:05:22 51°11.666 2°45.603 10.6 273 13.2 102460 71
2002-09-30 09:05:27 51°11.66 2°45.574 10.1 280 13.2 102470 71
2002-09-30 09:05:31 51°11.655 2°45.55 10.3 277 13.2 102470 71
2002-09-30 09:05:37 51°11.648 2°45.514 10.5 272 13.2 102460 71
2002-09-30 09:05:42 51°11.641 2°45.484 10 272 13.2 102460 71
2002-09-30 09:05:47 51°11.635 2°45.455 10.5 278 13.2 102470 72
2002-09-30 09:05:51 51°11.63 2°45.431 10.1 278 13.2 102470 72
2002-09-30 09:05:57 51°11.622 2°45.395 9.8 279 13.3 102460 72
2002-09-30 09:06:02 51°11.616 2°45.365 9.8 273 13.3 102460 72
2002-09-30 09:06:07 51°11.61 2°45.336 10.3 272 13.3 102460 71
2002-09-30 09:06:11 51°11.604 2°45.312 10.1 273 13.3 102460 71
2002-09-30 09:06:17 51°11.597 2°45.276 11 271 13.3 102460 71
2002-09-30 09:06:22 51°11.59 2°45.247 11.1 274 13.3 102460 71
2002-09-30 09:06:27 51°11.584 2°45.217 10.1 276 13.3 102470 72
2002-09-30 09:06:32 51°11.578 2°45.187 10.8 277 13.3 102470 72
2002-09-30 09:06:37 51°11.572 2°45.158 10.7 279 13.3 102460 72
2002-09-30 09:06:42 51°11.566 2°45.128 10.5 277 13.3 102460 72
2002-09-30 09:06:47 51°11.559 2°45.098 11.2 275 13.3 102460 72
2002-09-30 09:06:51 51°11.554 2°45.075 10.8 278 13.3 102460 72
2002-09-30 09:06:57 51°11.547 2°45.039 10.4 279 13.3 102460 71
2002-09-30 09:07:02 51°11.54 2°45.009 10.7 274 13.3 102460 71
2002-09-30 09:07:06 51°11.535 2°44.985 10.4 277 13.3 102460 71
2002-09-30 09:07:12 51°11.527 2°44.95 10.7 278 13.3 102460 71
2002-09-30 09:07:17 51°11.521 2°44.92 11.2 283 13.3 102460 71
2002-09-30 09:07:22 51°11.515 2°44.89 10.6 281 13.3 102460 71
2002-09-30 09:07:26 51°11.51 2°44.866 10.5 282 13.3 102470 71
2002-09-30 09:07:32 51°11.501 2°44.831 10.6 281 13.3 102470 71
2002-09-30 09:07:37 51°11.494 2°44.802 10.3 274 13.4 102470 71
2002-09-30 09:07:42 51°11.487 2°44.772 10.6 276 13.4 102470 71
2002-09-30 09:07:47 51°11.48 2°44.743 12.2 277 13.4 102470 71
2002-09-30 09:07:51 51°11.474 2°44.719 11.3 280 13.4 102470 71
2002-09-30 09:07:57 51°11.466 2°44.684 10.9 282 13.4 102460 71
2002-09-30 09:08:02 51°11.459 2°44.655 10.5 278 13.4 102460 71
2002-09-30 09:08:06 51°11.454 2°44.631 11.3 278 13.4 102460 71
2002-09-30 09:08:12 51°11.446 2°44.596 11 276 13.4 102460 71
2002-09-30 09:08:17 51°11.439 2°44.566 10.9 282 13.4 102460 71
2002-09-30 09:08:22 51°11.433 2°44.536 10.8 277 13.4 102460 71
2002-09-30 09:08:27 51°11.426 2°44.507 10.7 277 13.4 102460 70
2002-09-30 09:08:32 51°11.42 2°44.477 10.9 277 13.4 102460 70
2002-09-30 09:08:37 51°11.413 2°44.447 10.5 277 13.4 102460 70
2002-09-30 09:08:42 51°11.406 2°44.418 10.4 279 13.4 102460 70
2002-09-30 09:08:46 51°11.401 2°44.394 4.4 278 13.4 102460 70
2002-09-30 09:08:51 51°11.394 2°44.365 10 277 13.4 102460 70
2002-09-30 09:08:57 51°11.385 2°44.33 9.8 281 13.4 102460 70
2002-09-30 09:09:02 51°11.378 2°44.3 9.2 277 13.4 102460 70
2002-09-30 09:09:06 51°11.373 2°44.277 11.2 280 13.4 102470 70
2002-09-30 09:09:11 51°11.366 2°44.247 10.3 276 13.4 102470 70
2002-09-30 09:09:17 51°11.358 2°44.212 10.2 275 13.4 102460 70
2002-09-30 09:09:22 51°11.352 2°44.182 9.4 276 13.4 102460 70
2002-09-30 09:09:27 51°11.345 2°44.152 9.9 283 13.4 102470 71
2002-09-30 09:09:31 51°11.34 2°44.128 9.9 273 13.4 102470 71
2002-09-30 09:09:37 51°11.333 2°44.092 11 278 13.4 102460 71
2002-09-30 09:09:42 51°11.327 2°44.062 10.8 277 13.4 102460 71
2002-09-30 09:09:47 51°11.321 2°44.032 10.4 271 13.5 102460 71
2002-09-30 09:09:51 51°11.315 2°44.008 10.3 278 13.5 102460 71
2002-09-30 09:09:57 51°11.308 2°43.972 10 278 13.5 102470 71
2002-09-30 09:10:02 51°11.302 2°43.943 9.9 275 13.5 102470 71
2002-09-30 09:10:07 51°11.295 2°43.913 9.7 274 13.5 102460 72
2002-09-30 09:10:12 51°11.289 2°43.883 9.9 278 13.5 102460 72
2002-09-30 09:10:17 51°11.282 2°43.853 11.1 275 13.5 102470 71
2002-09-30 09:10:22 51°11.276 2°43.823 10.3 278 13.5 102470 71
2002-09-30 09:10:27 51°11.269 2°43.794 10.4 274 13.5 102470 71
2002-09-30 09:10:31 51°11.264 2°43.77 10.1 273 13.5 102470 71
2002-09-30 09:10:37 51°11.255 2°43.734 10.4 274 13.5 102460 71
2002-09-30 09:10:42 51°11.248 2°43.705 10.4 279 13.5 102460 71
2002-09-30 09:10:47 51°11.241 2°43.675 10.2 272 13.5 102460 71
2002-09-30 09:10:53 51°11.233 2°43.639 10.5 277 13.5 102460 71
2002-09-30 09:10:57 51°11.228 2°43.616 10.7 275 13.5 102460 71
2002-09-30 09:11:02 51°11.221 2°43.586 10.5 275 13.5 102460 71
2002-09-30 09:11:07 51°11.214 2°43.556 9.9 276 13.5 102460 71
2002-09-30 09:11:12 51°11.208 2°43.526 9.9 275 13.5 102460 71
2002-09-30 09:11:17 51°11.201 2°43.497 11.1 275 13.5 102460 71
2002-09-30 09:11:22 51°11.194 2°43.467 10.2 277 13.5 102460 71
2002-09-30 09:11:27 51°11.187 2°43.437 10.2 272 13.5 102460 71
2002-09-30 09:11:32 51°11.181 2°43.407 10.8 276 13.5 102460 71
2002-09-30 09:11:37 51°11.174 2°43.378 11.7 275 13.5 102460 71
2002-09-30 09:11:42 51°11.167 2°43.348 11.5 273 13.5 102460 71
2002-09-30 09:11:47 51°11.16 2°43.318 11.6 273 13.5 102460 71
2002-09-30 09:11:52 51°11.154 2°43.288 11.4 278 13.5 102460 71
2002-09-30 09:11:57 51°11.147 2°43.258 11 278 13.5 102460 71
2002-09-30 09:12:02 51°11.141 2°43.229 11.3 275 13.5 102460 71
2002-09-30 09:12:07 51°11.134 2°43.199 11.6 277 13.5 102460 71
2002-09-30 09:12:12 51°11.128 2°43.169 11.6 278 13.5 102460 71
2002-09-30 09:12:17 51°11.122 2°43.139 11.1 275 13.5 102450 70
2002-09-30 09:12:22 51°11.115 2°43.109 11.8 276 13.5 102450 70
2002-09-30 09:12:27 51°11.109 2°43.08 12 278 13.5 102450 70
2002-09-30 09:12:33 51°11.101 2°43.044 11.5 282 13.5 102450 70
2002-09-30 09:12:37 51°11.096 2°43.02 11.9 272 13.5 102450 70
2002-09-30 09:12:42 51°11.09 2°42.99 12.5 274 13.5 102450 70
2002-09-30 09:12:47 51°11.083 2°42.96 12.3 276 13.5 102450 70
2002-09-30 09:12:51 51°11.078 2°42.936 13 277 13.5 102450 70
2002-09-30 09:12:57 51°11.071 2°42.901 11.9 278 13.5 102450 70
2002-09-30 09:13:02 51°11.064 2°42.871 11.7 278 13.5 102450 70
2002-09-30 09:13:06 51°11.059 2°42.847 11.7 281 13.5 102450 70
2002-09-30 09:13:12 51°11.051 2°42.811 12.4 278 13.5 102450 70
2002-09-30 09:13:16 51°11.046 2°42.788 12.3 279 13.5 102450 70
2002-09-30 09:13:22 51°11.037 2°42.752 12.1 281 13.5 102450 70
2002-09-30 09:13:27 51°11.031 2°42.723 11.6 277 13.5 102450 69
2002-09-30 09:13:33 51°11.022 2°42.687 11.8 281 13.5 102450 69
2002-09-30 09:13:37 51°11.017 2°42.664 12.3 279 13.5 102440 70
2002-09-30 09:13:42 51°11.01 2°42.634 11.8 276 13.5 102440 70
2002-09-30 09:13:46 51°11.005 2°42.61 12 281 13.5 102450 69
2002-09-30 09:13:51 51°10.999 2°42.581 12 281 13.5 102450 69
2002-09-30 09:13:57 51°10.991 2°42.545 11.9 283 13.5 102450 69
2002-09-30 09:14:02 51°10.985 2°42.515 11.5 282 13.5 102450 69
2002-09-30 09:14:07 51°10.979 2°42.485 11.6 282 13.5 102450 69
2002-09-30 09:14:11 51°10.974 2°42.461 11.1 284 13.5 102450 69
2002-09-30 09:14:17 51°10.967 2°42.425 11.7 283 13.5 102450 69
2002-09-30 09:14:22 51°10.961 2°42.395 11.7 281 13.5 102450 69
2002-09-30 09:14:27 51°10.954 2°42.365 11.3 281 13.5 102450 69
2002-09-30 09:14:31 51°10.95 2°42.341 11.8 278 13.5 102450 69
2002-09-30 09:14:37 51°10.942 2°42.306 11.3 277 13.6 102460 69
2002-09-30 09:14:42 51°10.936 2°42.276 10.7 275 13.6 102460 69
2002-09-30 09:14:47 51°10.929 2°42.246 11.1 272 13.6 102450 70
2002-09-30 09:14:52 51°10.923 2°42.216 11.9 276 13.6 102450 70
2002-09-30 09:14:57 51°10.917 2°42.186 11.3 273 13.6 102450 70
2002-09-30 09:15:02 51°10.91 2°42.156 11.5 274 13.6 102450 70
2002-09-30 09:15:07 51°10.903 2°42.127 11.4 274 13.7 102450 70
2002-09-30 09:15:12 51°10.896 2°42.097 10.8 274 13.7 102450 70
2002-09-30 09:15:17 51°10.889 2°42.068 11.8 282 13.6 102460 70
2002-09-30 09:15:21 51°10.884 2°42.044 10.6 280 13.6 102460 70
2002-09-30 09:15:27 51°10.875 2°42.009 11.3 278 13.6 102450 70
2002-09-30 09:15:31 51°10.87 2°41.985 10.8 280 13.6 102450 70
2002-09-30 09:15:37 51°10.862 2°41.949 10.9 281 13.6 102450 69
2002-09-30 09:15:42 51°10.855 2°41.92 11.6 284 13.6 102450 69
2002-09-30 09:15:47 51°10.848 2°41.89 11.1 281 13.6 102450 69
2002-09-30 09:15:51 51°10.843 2°41.866 11.2 278 13.6 102450 69
2002-09-30 09:15:55 51°10.838 2°41.842 11.1 275 13.6 102450 69
2002-09-30 09:16:02 51°10.827 2°41.801 10.3 281 13.6 102450 69
2002-09-30 09:16:07 51°10.821 2°41.771 10.8 277 13.6 102450 69
2002-09-30 09:16:12 51°10.814 2°41.741 10.3 278 13.6 102450 69
2002-09-30 09:16:17 51°10.807 2°41.712 11 277 13.6 102460 70
2002-09-30 09:16:22 51°10.8 2°41.682 10.6 279 13.6 102460 70
2002-09-30 09:16:27 51°10.794 2°41.652 11.2 279 13.6 102450 70
2002-09-30 09:16:32 51°10.788 2°41.622 10.8 278 13.6 102450 70
2002-09-30 09:16:37 51°10.782 2°41.592 10.2 277 13.7 102450 70
2002-09-30 09:16:43 51°10.774 2°41.556 10.5 280 13.7 102450 70
2002-09-30 09:16:46 51°10.77 2°41.538 10.5 277 13.7 102450 70
2002-09-30 09:16:51 51°10.764 2°41.508 11.5 275 13.7 102450 70
2002-09-30 09:16:57 51°10.757 2°41.471 10.5 279 13.7 102450 70
2002-09-30 09:17:02 51°10.751 2°41.441 10.8 277 13.7 102450 70
2002-09-30 09:17:07 51°10.744 2°41.411 11.6 275 13.7 102450 70
2002-09-30 09:17:12 51°10.738 2°41.381 11.3 279 13.7 102450 70
2002-09-30 09:17:14 51°10.736 2°41.369 11.2 278 13.7 102450 70
2002-09-30 09:17:22 51°10.726 2°41.321 11 280 13.7 102450 70
2002-09-30 09:17:26 51°10.721 2°41.297 10.7 281 13.7 102450 70
2002-09-30 09:17:30 51°10.716 2°41.273 10.7 277 13.7 102450 70
2002-09-30 09:17:37 51°10.707 2°41.231 11 278 13.7 102450 69
2002-09-30 09:17:42 51°10.701 2°41.201 10.5 280 13.7 102450 69
2002-09-30 09:17:47 51°10.694 2°41.17 11 278 13.7 102450 69
2002-09-30 09:17:51 51°10.689 2°41.147 11.2 273 13.7 102450 69
2002-09-30 09:17:57 51°10.681 2°41.111 10.8 269 13.7 102450 70
2002-09-30 09:18:02 51°10.674 2°41.081 11.2 277 13.7 102450 70
2002-09-30 09:18:07 51°10.668 2°41.051 11.2 280 13.7 102450 70
2002-09-30 09:18:11 51°10.662 2°41.027 10.6 281 13.7 102450 70
2002-09-30 09:18:17 51°10.654 2°40.992 10.7 279 13.7 102440 70
2002-09-30 09:18:22 51°10.647 2°40.962 11.4 280 13.7 102440 70
2002-09-30 09:18:27 51°10.64 2°40.932 11.4 277 13.7 102450 69
2002-09-30 09:18:32 51°10.634 2°40.902 11.1 277 13.7 102450 69
2002-09-30 09:18:37 51°10.627 2°40.872 11 276 13.7 102450 69
2002-09-30 09:18:42 51°10.62 2°40.842 11 277 13.7 102450 69
2002-09-30 09:18:47 51°10.614 2°40.812 11.3 279 13.7 102450 70
2002-09-30 09:18:52 51°10.607 2°40.782 10.9 279 13.7 102450 70
2002-09-30 09:18:57 51°10.601 2°40.752 10.3 275 13.7 102450 70
2002-09-30 09:19:02 51°10.594 2°40.722 10.8 277 13.7 102450 70
2002-09-30 09:19:07 51°10.588 2°40.692 11.1 280 13.7 102450 70
2002-09-30 09:19:11 51°10.583 2°40.668 10.7 285 13.7 102450 70
2002-09-30 09:19:17 51°10.575 2°40.632 10.2 279 13.7 102450 70
2002-09-30 09:19:21 51°10.57 2°40.608 10.3 279 13.7 102450 70
2002-09-30 09:19:27 51°10.562 2°40.572 10.7 279 13.7 102440 70
2002-09-30 09:19:33 51°10.555 2°40.537 10.6 277 13.7 102440 70
2002-09-30 09:19:37 51°10.55 2°40.513 10.5 280 13.7 102450 70
2002-09-30 09:19:42 51°10.543 2°40.483 10.2 283 13.7 102450 70
2002-09-30 09:19:47 51°10.537 2°40.454 10.2 281 13.7 102450 70
2002-09-30 09:19:53 51°10.529 2°40.418 10.4 284 13.7 102450 70
2002-09-30 09:19:57 51°10.524 2°40.394 10 283 13.7 102450 70
2002-09-30 09:20:02 51°10.518 2°40.364 10.5 278 13.7 102450 70
2002-09-30 09:20:07 51°10.511 2°40.334 10.9 279 13.7 102450 70
2002-09-30 09:20:11 51°10.506 2°40.311 11 279 13.7 102450 70
2002-09-30 09:20:17 51°10.499 2°40.275 11.5 278 13.7 102450 70
2002-09-30 09:20:22 51°10.493 2°40.245 10.6 278 13.7 102450 70
2002-09-30 09:20:27 51°10.487 2°40.215 11 278 13.7 102450 70
2002-09-30 09:20:31 51°10.482 2°40.191 11.4 281 13.7 102450 70
2002-09-30 09:20:37 51°10.474 2°40.156 11.3 278 13.7 102440 70
2002-09-30 09:20:42 51°10.468 2°40.126 10.7 278 13.7 102440 70
2002-09-30 09:20:47 51°10.462 2°40.096 11.1 276 13.7 102450 70
2002-09-30 09:20:52 51°10.455 2°40.067 11.1 279 13.7 102450 70
2002-09-30 09:20:57 51°10.449 2°40.037 10.1 280 13.7 102450 70
2002-09-30 09:21:02 51°10.442 2°40.008 10.6 274 13.7 102450 70
2002-09-30 09:21:07 51°10.435 2°39.978 10.4 280 13.7 102440 70
2002-09-30 09:21:11 51°10.429 2°39.954 11 279 13.7 102440 70
2002-09-30 09:21:17 51°10.421 2°39.919 9.9 276 13.7 102450 70
2002-09-30 09:21:22 51°10.414 2°39.89 11.3 278 13.7 102450 70
2002-09-30 09:21:26 51°10.409 2°39.866 10.8 279 13.7 102450 70
2002-09-30 09:21:32 51°10.401 2°39.831 10.7 283 13.7 102450 70
2002-09-30 09:21:37 51°10.394 2°39.801 10.5 278 13.7 102440 70
2002-09-30 09:21:42 51°10.388 2°39.771 10.6 277 13.7 102440 70
2002-09-30 09:21:47 51°10.381 2°39.741 10.8 280 13.7 102450 71
2002-09-30 09:21:50 51°10.377 2°39.723 9.8 278 13.7 102450 71
2002-09-30 09:21:57 51°10.369 2°39.681 10.6 277 13.7 102440 71
2002-09-30 09:22:02 51°10.363 2°39.652 10.6 276 13.7 102440 71
2002-09-30 09:22:07 51°10.357 2°39.622 10.2 281 13.7 102450 71
2002-09-30 09:22:12 51°10.351 2°39.592 10.3 276 13.7 102450 71
2002-09-30 09:22:17 51°10.345 2°39.562 10.8 278 13.7 102450 71
2002-09-30 09:22:22 51°10.339 2°39.532 10.7 279 13.7 102450 71
2002-09-30 09:22:27 51°10.332 2°39.502 10.2 281 13.7 102450 70
2002-09-30 09:22:32 51°10.326 2°39.472 10.3 282 13.7 102450 70
2002-09-30 09:22:37 51°10.32 2°39.442 10.4 277 13.7 102440 71
2002-09-30 09:22:42 51°10.313 2°39.412 10.3 281 13.7 102440 71
2002-09-30 09:22:47 51°10.307 2°39.382 10.8 277 13.7 102450 71
2002-09-30 09:22:51 51°10.302 2°39.359 10.7 278 13.7 102450 71
2002-09-30 09:22:57 51°10.293 2°39.323 11.6 274 13.7 102450 71
2002-09-30 09:23:02 51°10.287 2°39.293 11.3 275 13.7 102450 71
2002-09-30 09:23:07 51°10.28 2°39.264 11.1 275 13.7 102450 70
2002-09-30 09:23:12 51°10.273 2°39.234 10.3 272 13.7 102450 70
2002-09-30 09:23:17 51°10.266 2°39.205 10.7 277 13.7 102450 71
2002-09-30 09:23:22 51°10.259 2°39.175 9.9 274 13.7 102450 71
2002-09-30 09:23:27 51°10.253 2°39.145 10.2 279 13.7 102440 70
2002-09-30 09:23:32 51°10.246 2°39.116 9.8 276 13.7 102440 70
2002-09-30 09:23:37 51°10.241 2°39.085 9.5 280 13.7 102440 70
2002-09-30 09:23:42 51°10.236 2°39.055 9.4 279 13.7 102440 70
2002-09-30 09:23:46 51°10.232 2°39.03 9.8 286 13.7 102440 70
2002-09-30 09:23:51 51°10.228 2°39 8.8 278 13.7 102440 70
2002-09-30 09:23:57 51°10.224 2°38.963 8.8 286 13.7 102450 71
2002-09-30 09:24:02 51°10.222 2°38.932 8.5 276 13.7 102450 71
2002-09-30 09:24:07 51°10.221 2°38.9 8.9 280 13.7 102450 71
2002-09-30 09:24:11 51°10.22 2°38.875 8.8 277 13.7 102450 71
2002-09-30 09:24:17 51°10.219 2°38.838 8.8 278 13.8 102450 71
2002-09-30 09:24:22 51°10.219 2°38.807 9 281 13.8 102450 71
2002-09-30 09:24:27 51°10.218 2°38.775 9.1 281 13.8 102450 71
2002-09-30 09:24:31 51°10.218 2°38.75 9.1 276 13.8 102450 71
2002-09-30 09:24:37 51°10.216 2°38.713 9.9 278 13.8 102450 71
2002-09-30 09:24:42 51°10.211 2°38.684 10.1 274 13.8 102450 71
2002-09-30 09:24:47 51°10.204 2°38.656 11 271 13.7 102450 70
2002-09-30 09:24:52 51°10.194 2°38.63 10.9 272 13.7 102450 70
2002-09-30 09:24:57 51°10.184 2°38.605 10.6 267 13.7 102450 70
2002-09-30 09:25:01 51°10.175 2°38.585 12.5 265 13.7 102450 70
2002-09-30 09:25:07 51°10.161 2°38.556 11.7 265 13.7 102450 70
2002-09-30 09:25:13 51°10.147 2°38.528 12.5 263 13.7 102450 70
2002-09-30 09:25:17 51°10.136 2°38.511 12.3 257 13.7 102440 70
2002-09-30 09:25:22 51°10.122 2°38.49 13.6 261 13.7 102440 70
2002-09-30 09:25:27 51°10.108 2°38.47 12.9 262 13.8 102440 70
2002-09-30 09:25:31 51°10.096 2°38.454 13.6 260 13.8 102440 70
2002-09-30 09:25:37 51°10.078 2°38.431 12.7 260 13.8 102440 70
2002-09-30 09:25:42 51°10.063 2°38.412 13.2 265 13.8 102440 70
2002-09-30 09:25:47 51°10.048 2°38.391 12.6 260 13.7 102430 69
2002-09-30 09:25:52 51°10.034 2°38.372 12 263 13.7 102430 69
2002-09-30 09:25:57 51°10.021 2°38.353 12.3 265 13.7 102430 69
2002-09-30 09:26:02 51°10.008 2°38.335 11.1 266 13.7 102430 69
2002-09-30 09:26:06 51°9.999 2°38.321 10.8 264 13.7 102430 69
2002-09-30 09:26:12 51°9.986 2°38.302 11.5 270 13.7 102430 69
2002-09-30 09:26:17 51°9.975 2°38.287 11.1 271 13.7 102440 69
2002-09-30 09:26:21 51°9.967 2°38.276 10.7 264 13.7 102440 69
2002-09-30 09:26:27 51°9.956 2°38.262 11.5 263 13.7 102440 69
2002-09-30 09:26:31 51°9.948 2°38.253 11.2 265 13.7 102440 69
2002-09-30 09:26:37 51°9.937 2°38.241 11.1 262 13.8 102440 69
2002-09-30 09:26:42 51°9.928 2°38.232 9.7 265 13.8 102440 69
2002-09-30 09:26:47 51°9.92 2°38.225 10.1 261 13.8 102440 69
2002-09-30 09:26:52 51°9.912 2°38.218 9.6 261 13.8 102440 69
2002-09-30 09:26:57 51°9.903 2°38.212 9.4 259 13.7 102440 69
2002-09-30 09:27:02 51°9.896 2°38.207 9.2 261 13.7 102440 69
2002-09-30 09:27:07 51°9.888 2°38.202 9 257 13.7 102440 69
2002-09-30 09:27:12 51°9.881 2°38.198 8.6 256 13.7 102440 69
2002-09-30 09:27:17 51°9.874 2°38.194 8.7 253 13.7 102450 69
2002-09-30 09:27:21 51°9.868 2°38.192 8.6 254 13.7 102450 69
2002-09-30 09:27:27 51°9.86 2°38.188 9.4 254 13.7 102450 69
2002-09-30 09:27:32 51°9.854 2°38.185 9.4 261 13.7 102450 69
2002-09-30 09:27:37 51°9.848 2°38.182 9 264 13.7 102450 69
2002-09-30 09:27:42 51°9.842 2°38.178 8.4 264 13.7 102450 69
2002-09-30 09:27:46 51°9.838 2°38.176 8.6 265 13.8 102450 69
2002-09-30 09:27:52 51°9.832 2°38.172 8.9 269 13.8 102450 69
2002-09-30 09:27:57 51°9.827 2°38.169 9.2 267 13.8 102450 70
2002-09-30 09:28:01 51°9.823 2°38.166 8.5 270 13.8 102450 70
2002-09-30 09:28:07 51°9.818 2°38.162 8.6 264 13.8 102440 70
2002-09-30 09:28:13 51°9.812 2°38.158 9 266 13.8 102440 70
2002-09-30 09:28:17 51°9.809 2°38.155 8.8 273 13.8 102450 69
2002-09-30 09:28:22 51°9.805 2°38.151 9 273 13.8 102450 69
2002-09-30 09:28:27 51°9.801 2°38.148 9 275 13.8 102450 69
2002-09-30 09:28:31 51°9.798 2°38.145 8.1 275 13.8 102450 69
2002-09-30 09:28:37 51°9.794 2°38.141 8.3 277 13.8 102450 69
2002-09-30 09:28:42 51°9.791 2°38.137 8.1 276 13.8 102450 69
2002-09-30 09:28:47 51°9.788 2°38.134 7.9 276 13.8 102440 68
2002-09-30 09:28:53 51°9.784 2°38.129 8 278 13.8 102440 68
2002-09-30 09:28:57 51°9.782 2°38.127 7.5 283 13.7 102450 68
2002-09-30 09:29:02 51°9.779 2°38.123 8.3 277 13.7 102450 68
2002-09-30 09:29:07 51°9.776 2°38.119 8.3 275 13.7 102450 68
2002-09-30 09:29:11 51°9.774 2°38.116 8.1 278 13.7 102450 68
2002-09-30 09:29:15 51°9.772 2°38.113 8.4 280 13.7 102450 68
2002-09-30 09:29:22 51°9.768 2°38.108 8.2 283 13.7 102450 68
2002-09-30 09:29:27 51°9.766 2°38.105 8.1 282 13.7 102450 68
2002-09-30 09:29:32 51°9.764 2°38.101 7.7 286 13.7 102450 68
2002-09-30 09:29:35 51°9.762 2°38.099 7.7 290 13.7 102450 69
2002-09-30 09:29:42 51°9.759 2°38.094 7.7 285 13.7 102450 69
2002-09-30 09:29:47 51°9.757 2°38.09 7.2 284 13.7 102450 69
2002-09-30 09:29:51 51°9.755 2°38.087 7.3 286 13.7 102450 69
2002-09-30 09:29:57 51°9.753 2°38.083 7.3 294 13.7 102450 69
2002-09-30 09:30:02 51°9.751 2°38.079 7.4 290 13.7 102450 69
2002-09-30 09:30:07 51°9.749 2°38.075 6.9 292 13.7 102450 68
2002-09-30 09:30:12 51°9.747 2°38.072 6.9 292 13.7 102450 68
2002-09-30 09:30:15 51°9.746 2°38.069 7.7 296 13.7 102450 69
2002-09-30 09:30:23 51°9.743 2°38.064 7.4 290 13.7 102450 69
2002-09-30 09:30:27 51°9.741 2°38.061 7.8 297 13.8 102450 69
2002-09-30 09:30:30 51°9.74 2°38.058 7.2 294 13.8 102450 69
2002-09-30 09:30:37 51°9.738 2°38.053 7.6 298 13.8 102450 69
2002-09-30 09:30:42 51°9.737 2°38.05 6.9 287 13.8 102450 69
2002-09-30 09:30:46 51°9.735 2°38.047 7.2 298 13.8 102450 69
2002-09-30 09:30:52 51°9.734 2°38.043 7.1 298 13.8 102450 69
2002-09-30 09:30:57 51°9.732 2°38.039 7.5 288 13.9 102450 70
2002-09-30 09:31:02 51°9.731 2°38.035 7.4 291 13.9 102450 70
2002-09-30 09:31:07 51°9.73 2°38.031 7.6 297 13.9 102450 70
2002-09-30 09:31:12 51°9.729 2°38.028 7.6 291 13.9 102450 70
2002-09-30 09:31:17 51°9.728 2°38.024 7.8 298 13.9 102450 70
2002-09-30 09:31:22 51°9.727 2°38.02 7.6 296 13.9 102450 70
2002-09-30 09:31:27 51°9.726 2°38.017 7.3 294 13.9 102450 70
2002-09-30 09:31:31 51°9.725 2°38.014 8.1 296 13.9 102450 70
2002-09-30 09:31:37 51°9.724 2°38.01 7.9 294 13.9 102450 70
2002-09-30 09:31:42 51°9.723 2°38.006 7.2 298 13.9 102450 70
2002-09-30 09:31:47 51°9.722 2°38.003 7.5 298 13.9 102450 69
2002-09-30 09:31:52 51°9.721 2°37.999 6.7 304 13.9 102450 69
2002-09-30 09:31:57 51°9.721 2°37.996 6.6 303 13.9 102450 69
2002-09-30 09:32:02 51°9.72 2°37.992 7.4 298 13.9 102450 69
2002-09-30 09:32:07 51°9.719 2°37.989 7.4 298 13.9 102450 69
2002-09-30 09:32:12 51°9.718 2°37.986 7.2 298 13.9 102450 69
2002-09-30 09:32:17 51°9.717 2°37.982 8 304 13.9 102450 70
2002-09-30 09:32:21 51°9.717 2°37.979 6.9 300 13.9 102450 70
2002-09-30 09:32:27 51°9.716 2°37.975 6.8 307 14 102450 70
2002-09-30 09:32:31 51°9.715 2°37.973 7 297 14 102450 70
2002-09-30 09:32:35 51°9.715 2°37.97 6.9 299 14 102450 70
2002-09-30 09:32:42 51°9.714 2°37.965 7.4 299 14 102450 70
2002-09-30 09:32:47 51°9.713 2°37.962 6.8 301 14 102450 70
2002-09-30 09:32:52 51°9.713 2°37.959 5.7 306 14 102450 70
2002-09-30 09:32:57 51°9.712 2°37.955 6.4 310 14 102450 69
2002-09-30 09:33:02 51°9.712 2°37.952 6.3 303 14 102450 69
2002-09-30 09:33:07 51°9.711 2°37.949 7.1 295 14 102450 69
2002-09-30 09:33:12 51°9.711 2°37.946 7.8 300 14 102450 69
2002-09-30 09:33:14 51°9.71 2°37.944 6.9 299 14 102450 69
2002-09-30 09:33:22 51°9.709 2°37.939 6.1 305 14 102450 69
2002-09-30 09:33:27 51°9.709 2°37.936 7.3 297 14 102450 69
2002-09-30 09:33:32 51°9.708 2°37.932 5.5 307 14 102450 69
2002-09-30 09:33:37 51°9.708 2°37.929 5.1 303 14 102450 69
2002-09-30 09:33:42 51°9.707 2°37.926 5 306 14 102450 69
2002-09-30 09:33:46 51°9.707 2°37.924 5 301 14 102450 69
2002-09-30 09:33:52 51°9.706 2°37.92 5.8 299 14 102450 69
2002-09-30 09:33:57 51°9.706 2°37.917 5.8 304 14 102450 70
2002-09-30 09:34:02 51°9.705 2°37.913 6.3 304 14 102450 70
2002-09-30 09:34:08 51°9.705 2°37.91 5.2 303 14 102450 70
2002-09-30 09:34:11 51°9.705 2°37.908 5.2 301 14 102450 70
2002-09-30 09:34:18 51°9.704 2°37.904 6 306 14.1 102450 70
2002-09-30 09:34:22 51°9.704 2°37.901 6 305 14.1 102450 70
2002-09-30 09:34:27 51°9.703 2°37.898 5.3 303 14.1 102450 71
2002-09-30 09:34:33 51°9.703 2°37.894 5.5 305 14.1 102450 71
2002-09-30 09:34:37 51°9.703 2°37.892 5.9 302 14.1 102450 70
2002-09-30 09:34:42 51°9.702 2°37.889 4.2 304 14.1 102450 70
2002-09-30 09:34:47 51°9.702 2°37.886 3.9 302 14.1 102450 70
2002-09-30 09:34:52 51°9.702 2°37.883 4.4 304 14.1 102450 70
2002-09-30 09:34:57 51°9.701 2°37.88 3.9 300 14.1 102450 69
2002-09-30 09:35:02 51°9.701 2°37.877 4.9 297 14.1 102450 69
2002-09-30 09:35:07 51°9.701 2°37.874 4.8 304 14.1 102450 69
2002-09-30 09:35:11 51°9.7 2°37.872 4.7 298 14.1 102450 69
2002-09-30 09:35:17 51°9.7 2°37.868 4 301 14.1 102450 69
2002-09-30 09:35:21 51°9.7 2°37.866 3.5 309 14.1 102450 69
2002-09-30 09:35:27 51°9.699 2°37.862 3.1 318 14.2 102450 70
2002-09-30 09:35:31 51°9.699 2°37.86 3.3 314 14.2 102450 70
2002-09-30 09:35:37 51°9.699 2°37.856 4.4 299 14.1 102450 70
2002-09-30 09:35:42 51°9.699 2°37.854 4.2 298 14.1 102450 70
2002-09-30 09:35:47 51°9.698 2°37.851 4.3 301 14.1 102450 69
2002-09-30 09:35:53 51°9.698 2°37.847 6.3 303 14.1 102450 69
2002-09-30 09:35:57 51°9.698 2°37.845 3.1 316 14.1 102450 69
2002-09-30 09:36:01 51°9.698 2°37.842 4.1 304 14.1 102450 69
2002-09-30 09:36:07 51°9.697 2°37.839 4.3 300 14.1 102450 69
2002-09-30 09:36:12 51°9.697 2°37.836 4 324 14.1 102450 69
2002-09-30 09:36:18 51°9.697 2°37.833 4.8 309 14.1 102450 69
2002-09-30 09:36:23 51°9.696 2°37.83 4.4 309 14.1 102450 69
2002-09-30 09:36:28 51°9.696 2°37.827 4 306 14.2 102450 70
2002-09-30 09:36:31 51°9.696 2°37.825 3.4 312 14.2 102450 70
2002-09-30 09:36:37 51°9.696 2°37.822 4 297 14.2 102450 70
2002-09-30 09:36:42 51°9.696 2°37.819 3.1 305 14.2 102450 70
2002-09-30 09:36:46 51°9.696 2°37.816 3 326 14.2 102450 70
2002-09-30 09:36:50 51°9.695 2°37.814 3.9 302 14.2 102450 70
2002-09-30 09:36:57 51°9.695 2°37.81 4 318 14.2 102450 69
2002-09-30 09:37:02 51°9.695 2°37.807 3.5 302 14.2 102450 69